Time;durP1;ratioP1;P1;durP2;ratioP2;P2;SDS_P1;SDS_P2;PMS_P1;PMS_P2;Temp;Humidity;BMP_temperature;BMP_pressure;BME280_temperature;BME280_humidity;BME280_pressure;Samples;Min_cycle;Max_cycle;Signal;HPM_P1;HPM_P2
2021/04/20 00:01:54;;;;;;;30.58;20.30;;;10.00;75.50;;;;;;5006968;28;20043;-53
2021/04/20 00:04:20;;;;;;;28.63;20.20;;;10.00;75.60;;;;;;5004534;28;20454;-54
2021/04/20 00:06:46;;;;;;;27.55;20.02;;;9.90;75.50;;;;;;4983331;28;20044;-56
2021/04/20 00:09:11;;;;;;;32.28;20.77;;;9.90;75.90;;;;;;5005066;28;20422;-52
2021/04/20 00:11:38;;;;;;;29.25;20.48;;;9.90;76.10;;;;;;5012306;28;20169;-55
2021/04/20 00:14:05;;;;;;;30.17;20.98;;;9.80;76.10;;;;;;5001552;28;20046;-56
2021/04/20 00:16:32;;;;;;;28.83;20.73;;;9.80;76.20;;;;;;5007709;28;20053;-55
2021/04/20 00:18:57;;;;;;;34.47;22.10;;;9.80;76.40;;;;;;5005422;28;20050;-56
2021/04/20 00:21:23;;;;;;;30.58;20.75;;;9.70;76.40;;;;;;5006922;28;20038;-55
2021/04/20 00:23:49;;;;;;;32.50;21.38;;;9.60;76.80;;;;;;5000368;28;20487;-56
2021/04/20 00:26:14;;;;;;;30.25;20.77;;;9.50;77.10;;;;;;4999870;28;20477;-55
2021/04/20 00:28:40;;;;;;;28.25;20.75;;;9.50;77.20;;;;;;4996299;28;20041;-56
2021/04/20 00:31:06;;;;;;;32.40;21.75;;;9.50;77.40;;;;;;4996496;28;20042;-55
2021/04/20 00:33:32;;;;;;;31.42;22.25;;;9.50;77.60;;;;;;5006588;28;20329;-56
2021/04/20 00:35:58;;;;;;;33.55;20.52;;;9.50;77.40;;;;;;5004607;28;20038;-55
2021/04/20 00:38:23;;;;;;;29.35;21.08;;;9.40;77.80;;;;;;5007808;28;20046;-56
2021/04/20 00:40:50;;;;;;;33.65;21.45;;;9.40;78.00;;;;;;4999076;28;20054;-55
2021/04/20 00:43:15;;;;;;;29.15;20.80;;;9.40;78.10;;;;;;5001332;28;20043;-53
2021/04/20 00:45:43;;;;;;;27.30;18.17;;;9.20;78.20;;;;;;5009098;28;20060;-55
2021/04/20 00:48:09;;;;;;;29.13;18.98;;;9.10;77.50;;;;;;5002259;28;20487;-54
2021/04/20 00:50:40;;;;;;;28.08;19.35;;;8.90;77.40;;;;;;4998745;28;20078;-56
2021/04/20 00:53:08;;;;;;;28.30;19.65;;;8.80;78.00;;;;;;4997260;28;20085;-54
2021/04/20 00:55:34;;;;;;;29.02;21.05;;;8.60;78.30;;;;;;4995968;28;20038;-55
2021/04/20 00:58:00;;;;;;;27.63;20.17;;;8.50;78.80;;;;;;4993772;28;20106;-56
2021/04/20 01:00:32;;;;;;;29.98;20.35;;;8.30;79.00;;;;;;5006326;28;20554;-56
2021/04/20 01:02:58;;;;;;;30.40;20.88;;;8.30;79.60;;;;;;5000025;28;20041;-56
2021/04/20 01:05:30;;;;;;;28.83;20.52;;;8.30;79.90;;;;;;5004128;28;20415;-55
2021/04/20 01:08:05;;;;;;;31.02;20.83;;;8.20;80.10;;;;;;4998359;28;20490;-55
2021/04/20 01:10:34;;;;;;;27.83;20.23;;;8.20;80.20;;;;;;4997394;28;20046;-53
2021/04/20 01:13:02;;;;;;;31.20;20.27;;;8.10;80.20;;;;;;5006452;28;20470;-54
2021/04/20 01:15:29;;;;;;;27.15;20.13;;;8.10;80.30;;;;;;4995839;28;20050;-55
2021/04/20 01:17:54;;;;;;;27.80;20.33;;;8.00;80.20;;;;;;5005670;28;20414;-55
2021/04/20 01:20:20;;;;;;;31.83;20.75;;;8.00;80.70;;;;;;5001110;28;20046;-55
2021/04/20 01:22:48;;;;;;;29.42;20.65;;;8.00;80.90;;;;;;4997020;28;20042;-55
2021/04/20 01:25:15;;;;;;;30.90;22.33;;;8.00;81.60;;;;;;5000300;28;20057;-54
2021/04/20 01:27:42;;;;;;;32.10;21.75;;;8.10;81.70;;;;;;5003222;28;20125;-55
2021/04/20 01:30:12;;;;;;;33.95;22.58;;;8.10;81.60;;;;;;5004391;28;20415;-55
2021/04/20 01:32:39;;;;;;;31.55;22.23;;;8.00;81.70;;;;;;5001672;28;20494;-55
2021/04/20 01:35:08;;;;;;;33.03;21.52;;;7.90;81.80;;;;;;5005835;28;20385;-55
2021/04/20 01:37:35;;;;;;;30.00;20.08;;;7.90;82.50;;;;;;4999220;28;20056;-55
2021/04/20 01:40:01;;;;;;;30.85;20.70;;;7.80;81.70;;;;;;5005027;28;20581;-55
2021/04/20 01:42:27;;;;;;;32.70;21.05;;;7.80;81.90;;;;;;5003299;28;20038;-54
2021/04/20 01:44:54;;;;;;;34.35;23.02;;;7.80;82.30;;;;;;5008521;28;20034;-55
2021/04/20 01:47:20;;;;;;;35.03;22.48;;;7.80;82.30;;;;;;4997776;28;20054;-55
2021/04/20 01:49:45;;;;;;;34.10;22.98;;;7.80;82.80;;;;;;5000329;28;20045;-55
2021/04/20 01:52:11;;;;;;;33.05;22.40;;;7.80;82.80;;;;;;5008084;28;20077;-54
2021/04/20 01:54:40;;;;;;;31.80;21.27;;;7.70;82.80;;;;;;4996967;28;20054;-54
2021/04/20 01:57:06;;;;;;;31.08;20.88;;;7.70;82.60;;;;;;5000660;28;20042;-53
2021/04/20 01:59:32;;;;;;;29.48;20.17;;;7.70;82.60;;;;;;5002123;28;20514;-51
2021/04/20 02:01:59;;;;;;;33.03;21.27;;;7.50;82.20;;;;;;5008195;28;20064;-53
2021/04/20 02:04:24;;;;;;;30.63;21.40;;;7.50;82.40;;;;;;4996107;28;20038;-54
2021/04/20 02:06:51;;;;;;;33.22;21.90;;;7.50;82.90;;;;;;4996070;28;20046;-53
2021/04/20 02:09:17;;;;;;;33.70;21.60;;;7.50;83.20;;;;;;5002037;28;20140;-55
2021/04/20 02:11:43;;;;;;;38.10;23.17;;;7.50;83.20;;;;;;4995833;28;20121;-51
2021/04/20 02:14:08;;;;;;;35.03;22.75;;;7.50;83.30;;;;;;4998340;28;20050;-54
2021/04/20 02:16:35;;;;;;;32.63;22.77;;;7.40;83.40;;;;;;4999776;28;20399;-52
2021/04/20 02:19:09;;;;;;;32.30;21.88;;;7.40;83.20;;;;;;5003223;28;20042;-51
2021/04/20 02:21:36;;;;;;;33.17;21.83;;;7.40;83.30;;;;;;5005285;28;20069;-53
2021/04/20 02:24:02;;;;;;;32.08;21.58;;;7.40;83.20;;;;;;4998178;28;20050;-51
2021/04/20 02:26:33;;;;;;;34.85;21.90;;;7.30;83.10;;;;;;4991389;28;20053;-54
2021/04/20 02:29:01;;;;;;;33.90;23.08;;;7.20;83.30;;;;;;5003903;28;20038;-53
2021/04/20 02:31:27;;;;;;;35.58;23.40;;;7.20;83.90;;;;;;4997580;28;20090;-52
2021/04/20 02:33:55;;;;;;;35.72;22.95;;;7.20;84.10;;;;;;5003072;28;20458;-52
2021/04/20 02:36:23;;;;;;;34.63;22.73;;;7.20;84.40;;;;;;4999401;28;20054;-53
2021/04/20 02:38:49;;;;;;;35.47;22.42;;;7.20;84.10;;;;;;4991662;28;20109;-51
2021/04/20 02:41:17;;;;;;;34.85;23.65;;;7.10;84.30;;;;;;5002420;28;20108;-51
2021/04/20 02:43:44;;;;;;;33.67;20.85;;;7.00;84.60;;;;;;5007920;28;20042;-50
2021/04/20 02:46:10;;;;;;;32.17;21.40;;;7.00;84.50;;;;;;5005991;28;20425;-55
2021/04/20 02:48:35;;;;;;;35.20;21.05;;;6.90;84.20;;;;;;5013478;28;20053;-53
2021/04/20 02:51:03;;;;;;;34.45;22.23;;;6.90;84.20;;;;;;5000132;28;20048;-49
2021/04/20 02:53:31;;;;;;;33.38;21.77;;;6.80;84.20;;;;;;5002898;28;20076;-52
2021/04/20 02:55:57;;;;;;;33.00;22.10;;;6.70;84.40;;;;;;5002376;28;20117;-50
2021/04/20 02:58:27;;;;;;;35.17;22.75;;;6.60;84.60;;;;;;5007313;28;20487;-49
2021/04/20 03:01:06;;;;;;;33.60;21.67;;;6.60;85.00;;;;;;5002747;28;20092;-50
2021/04/20 03:03:40;;;;;;;32.35;21.58;;;6.60;85.30;;;;;;5007534;28;20049;-52
2021/04/20 03:06:06;;;;;;;35.97;22.40;;;6.60;85.10;;;;;;5005501;28;20045;-51
2021/04/20 03:08:32;;;;;;;33.33;22.27;;;6.60;85.30;;;;;;4998880;28;20037;-50
2021/04/20 03:11:03;;;;;;;35.65;23.38;;;6.60;85.60;;;;;;4999364;28;20034;-50
2021/04/20 03:13:28;;;;;;;35.70;22.35;;;6.60;85.80;;;;;;4999748;28;20423;-50
2021/04/20 03:15:55;;;;;;;35.92;23.98;;;6.60;85.80;;;;;;5005785;28;20049;-54
2021/04/20 03:18:21;;;;;;;37.60;23.70;;;6.50;86.00;;;;;;4995295;28;20038;-51
2021/04/20 03:20:46;;;;;;;45.42;23.98;;;6.50;85.90;;;;;;5003539;28;20038;-50
2021/04/20 03:23:12;;;;;;;40.47;24.55;;;6.50;86.50;;;;;;4996550;28;20050;-51
2021/04/20 03:25:40;;;;;;;36.80;23.25;;;6.40;86.30;;;;;;4998013;28;20193;-50
2021/04/20 03:28:05;;;;;;;36.65;22.77;;;6.40;86.20;;;;;;4995403;28;20405;-50
2021/04/20 03:30:32;;;;;;;33.70;21.23;;;6.40;86.20;;;;;;5004218;28;20038;-50
2021/04/20 03:33:00;;;;;;;34.30;20.67;;;6.40;85.90;;;;;;4997237;28;20049;-52
2021/04/20 03:35:54;;;;;;;38.83;22.77;;;6.30;85.70;;;;;;4998050;28;20399;-50
2021/04/20 03:38:23;;;;;;;35.38;23.15;;;6.20;85.70;;;;;;5000365;28;20042;-53
2021/04/20 03:40:57;;;;;;;34.85;21.80;;;6.20;86.10;;;;;;5011920;28;20041;-49
2021/04/20 03:43:28;;;;;;;39.10;24.42;;;6.20;86.60;;;;;;5008408;28;20121;-49
2021/04/20 03:46:11;;;;;;;37.83;23.02;;;6.30;86.60;;;;;;5013682;28;20417;-51
2021/04/20 03:48:42;;;;;;;39.13;24.25;;;6.30;86.80;;;;;;5006748;28;20038;-50
2021/04/20 03:51:13;;;;;;;39.35;23.92;;;6.20;86.60;;;;;;4999652;28;20053;-49
2021/04/20 03:53:41;;;;;;;36.67;24.20;;;6.20;86.80;;;;;;5007433;28;20041;-49
2021/04/20 03:56:08;;;;;;;36.83;22.95;;;6.20;86.70;;;;;;5001394;28;20124;-52
2021/04/20 03:58:37;;;;;;;37.67;22.77;;;6.10;86.70;;;;;;5004794;28;20048;-53
2021/04/20 04:01:06;;;;;;;39.00;23.95;;;6.20;87.00;;;;;;4996497;28;20038;-51
2021/04/20 04:03:34;;;;;;;35.97;22.50;;;6.20;87.00;;;;;;5002313;28;20038;-52
2021/04/20 04:06:01;;;;;;;37.88;24.05;;;6.20;86.90;;;;;;5004811;28;20052;-49
2021/04/20 04:08:29;;;;;;;36.95;22.83;;;6.20;86.70;;;;;;4994448;28;20053;-52
2021/04/20 04:10:57;;;;;;;35.65;21.23;;;6.10;86.70;;;;;;5000327;28;20104;-50
2021/04/20 04:13:26;;;;;;;37.20;22.48;;;6.10;86.60;;;;;;4996209;28;20042;-49
2021/04/20 04:15:57;;;;;;;32.22;19.80;;;6.00;86.60;;;;;;5000318;28;20069;-51
2021/04/20 04:18:25;;;;;;;31.88;20.27;;;6.00;86.10;;;;;;5000019;28;20068;-49
2021/04/20 04:20:51;;;;;;;31.05;20.38;;;5.90;85.00;;;;;;5000556;28;20706;-50
2021/04/20 04:23:17;;;;;;;38.40;22.27;;;5.70;85.10;;;;;;5005726;28;20041;-50
2021/04/20 04:25:49;;;;;;;37.45;23.02;;;5.60;85.60;;;;;;5001303;28;20129;-50
2021/04/20 04:28:16;;;;;;;;;;;5.50;86.10;;;;;;5005897;28;20059;-49
2021/04/20 04:30:44;;;;;;;38.40;23.02;;;5.50;87.50;;;;;;4998483;28;19921;-52
2021/04/20 04:33:12;;;;;;;38.47;23.52;;;5.40;87.00;;;;;;5006885;28;20048;-53
2021/04/20 04:35:39;;;;;;;38.33;23.10;;;5.50;87.20;;;;;;5003129;28;20282;-49
2021/04/20 04:38:06;;;;;;;39.03;24.63;;;5.50;87.80;;;;;;5012624;28;20510;-54
2021/04/20 04:40:33;;;;;;;41.33;24.17;;;5.50;87.30;;;;;;5010414;28;20085;-51
2021/04/20 04:43:00;;;;;;;40.45;24.23;;;5.50;88.20;;;;;;5003092;28;20422;-50
2021/04/20 04:45:26;;;;;;;44.55;24.88;;;5.60;88.30;;;;;;5003365;28;20068;-53
2021/04/20 04:47:52;;;;;;;45.38;27.67;;;5.70;88.80;;;;;;5004134;28;20048;-55
2021/04/20 04:50:18;;;;;;;43.13;26.45;;;5.70;88.30;;;;;;4989313;28;20038;-50
2021/04/20 04:52:46;;;;;;;42.50;25.17;;;5.70;88.30;;;;;;5010180;28;20527;-50
2021/04/20 04:55:12;;;;;;;35.08;21.83;;;5.70;88.20;;;;;;5001334;28;20124;-50
2021/04/20 04:57:40;;;;;;;38.97;22.95;;;5.70;87.90;;;;;;5004342;28;20037;-51
2021/04/20 05:00:08;;;;;;;41.13;22.42;;;5.70;87.50;;;;;;5002731;28;20042;-51
2021/04/20 05:02:35;;;;;;;35.75;22.80;;;5.70;87.30;;;;;;5001612;28;20042;-51
2021/04/20 05:05:09;;;;;;;40.30;25.30;;;5.60;87.10;;;;;;5004296;28;20506;-52
2021/04/20 05:07:35;;;;;;;32.13;20.60;;;5.60;87.40;;;;;;4996098;28;20052;-51
2021/04/20 05:10:08;;;;;;;40.92;24.33;;;5.60;87.40;;;;;;5004191;28;20157;-50
2021/04/20 05:12:35;;;;;;;34.63;21.73;;;5.60;87.50;;;;;;5010752;28;20403;-51
2021/04/20 05:15:28;;;;;;;34.63;20.65;;;5.60;87.40;;;;;;5008876;28;20502;-52
2021/04/20 05:17:54;;;;;;;35.72;21.17;;;5.60;87.00;;;;;;5007157;28;20241;-50
2021/04/20 05:20:21;;;;;;;41.00;24.50;;;5.60;86.90;;;;;;5014990;28;20042;-51
2021/04/20 05:22:48;;;;;;;37.40;21.88;;;5.60;87.00;;;;;;5010654;28;20042;-50
2021/04/20 05:25:17;;;;;;;35.45;21.13;;;5.60;86.90;;;;;;5011077;28;20041;-50
2021/04/20 05:27:44;;;;;;;33.28;20.67;;;5.60;86.80;;;;;;4998532;28;20120;-53
2021/04/20 05:30:11;;;;;;;43.97;23.65;;;5.70;86.70;;;;;;5010016;28;20095;-51
2021/04/20 05:32:39;;;;;;;40.13;25.55;;;5.70;87.10;;;;;;4998062;28;20128;-50
2021/04/20 05:35:06;;;;;;;33.45;20.17;;;5.90;87.40;;;;;;4995831;28;20042;-50
2021/04/20 05:37:37;;;;;;;33.53;20.65;;;6.00;87.20;;;;;;5011993;28;20037;-52
2021/04/20 05:40:09;;;;;;;32.35;20.30;;;6.10;86.70;;;;;;5007976;28;20396;-52
2021/04/20 05:42:36;;;;;;;38.08;22.15;;;6.20;86.10;;;;;;5009984;28;20124;-54
2021/04/20 05:45:04;;;;;;;50.20;26.08;;;6.40;85.90;;;;;;5013083;28;20136;-50
2021/04/20 05:47:31;;;;;;;47.88;27.92;;;6.60;86.20;;;;;;5010109;28;20081;-50
2021/04/20 05:50:02;;;;;;;45.90;27.83;;;6.80;86.20;;;;;;5011998;28;20073;-49
2021/04/20 05:52:32;;;;;;;46.37;27.60;;;7.00;85.70;;;;;;5012336;28;20034;-50
2021/04/20 05:54:58;;;;;;;49.80;28.48;;;7.30;85.20;;;;;;5009960;28;20084;-53
2021/04/20 05:57:25;;;;;;;56.25;30.40;;;7.60;84.50;;;;;;5012743;28;20046;-50
2021/04/20 05:59:58;;;;;;;50.22;30.00;;;7.80;84.20;;;;;;5008631;28;20042;-49
2021/04/20 06:02:30;;;;;;;53.15;31.40;;;8.10;84.10;;;;;;5009229;28;20457;-52
2021/04/20 06:04:59;;;;;;;62.60;34.77;;;8.40;83.60;;;;;;5010820;28;20084;-49
2021/04/20 06:07:26;;;;;;;62.97;35.70;;;8.80;83.70;;;;;;5008882;28;20034;-50
2021/04/20 06:09:52;;;;;;;67.15;38.17;;;9.20;84.10;;;;;;4997260;28;20049;-53
2021/04/20 06:12:18;;;;;;;70.65;38.70;;;9.50;82.90;;;;;;5009197;28;20041;-52
2021/04/20 06:14:44;;;;;;;67.22;36.50;;;9.60;82.50;;;;;;5009853;28;20038;-54
2021/04/20 06:17:13;;;;;;;62.83;37.17;;;9.80;82.60;;;;;;5006774;28;20049;-55
2021/04/20 06:19:40;;;;;;;63.00;35.03;;;10.10;82.00;;;;;;5012430;28;20038;-53
2021/04/20 06:22:10;;;;;;;59.75;34.88;;;10.20;81.50;;;;;;5007070;28;20029;-54
2021/04/20 06:24:36;;;;;;;59.95;35.25;;;10.20;81.80;;;;;;5012656;28;20057;-52
2021/04/20 06:27:03;;;;;;;62.72;36.85;;;10.20;82.10;;;;;;5014401;28;20073;-53
2021/04/20 06:29:29;;;;;;;63.78;37.72;;;10.30;82.20;;;;;;5013955;28;20057;-53
2021/04/20 06:31:55;;;;;;;68.20;37.75;;;10.20;82.40;;;;;;5012676;28;20050;-50
2021/04/20 06:34:23;;;;;;;65.10;38.50;;;10.20;82.90;;;;;;5012367;28;20069;-50
2021/04/20 06:36:52;;;;;;;61.00;37.15;;;10.20;82.80;;;;;;5009161;28;20038;-51
2021/04/20 06:39:19;;;;;;;63.88;38.25;;;10.20;83.10;;;;;;5004322;28;20116;-51
2021/04/20 06:41:50;;;;;;;63.47;37.92;;;10.20;83.00;;;;;;5007128;28;20042;-51
2021/04/20 06:44:43;;;;;;;58.08;37.15;;;10.30;82.70;;;;;;5008493;28;20054;-51
2021/04/20 06:47:19;;;;;;;54.90;33.90;;;10.40;82.40;;;;;;5009645;28;20387;-52
2021/04/20 06:49:52;;;;;;;57.60;35.50;;;10.50;81.50;;;;;;5004472;28;20666;-53
2021/04/20 06:52:28;;;;;;;54.10;34.95;;;10.60;81.60;;;;;;5011694;28;20068;-51
2021/04/20 06:55:03;;;;;;;56.92;34.95;;;10.70;81.70;;;;;;5011174;28;20435;-50
2021/04/20 06:57:44;;;;;;;54.90;33.67;;;10.80;81.10;;;;;;5004404;28;20121;-50
2021/04/20 07:00:18;;;;;;;49.80;32.58;;;10.90;81.00;;;;;;5007603;28;20041;-53
2021/04/20 07:03:12;;;;;;;50.67;32.35;;;11.10;80.10;;;;;;5006112;28;20038;-50
2021/04/20 07:05:52;;;;;;;47.30;31.83;;;11.20;80.00;;;;;;5008135;28;20035;-51
2021/04/20 07:08:52;;;;;;;50.60;32.10;;;11.30;79.00;;;;;;5011474;28;20038;-50
2021/04/20 07:11:18;;;;;;;51.13;31.98;;;11.40;79.50;;;;;;5006974;28;20070;-53
2021/04/20 07:13:46;;;;;;;50.53;30.98;;;11.50;78.90;;;;;;5006887;28;20049;-50
2021/04/20 07:16:32;;;;;;;51.50;32.70;;;11.60;77.90;;;;;;5007130;28;20138;-50
2021/04/20 07:19:11;;;;;;;46.00;29.33;;;11.70;77.60;;;;;;5006764;28;20042;-50
2021/04/20 07:22:07;;;;;;;45.03;29.33;;;11.80;77.60;;;;;;5000271;28;20065;-49
2021/04/20 07:25:04;;;;;;;48.38;31.02;;;11.80;77.20;;;;;;4992175;28;20039;-50
2021/04/20 07:27:54;;;;;;;49.22;31.63;;;11.90;77.80;;;;;;5006894;28;20193;-53
2021/04/20 07:30:32;;;;;;;45.20;30.65;;;12.00;77.40;;;;;;5004572;28;20457;-52
2021/04/20 07:33:10;;;;;;;48.47;31.88;;;12.10;77.50;;;;;;5011096;28;20541;-50
2021/04/20 07:36:08;;;;;;;47.28;30.95;;;12.20;77.00;;;;;;5014834;28;20046;-53
2021/04/20 07:38:56;;;;;;;47.55;31.88;;;12.30;76.70;;;;;;4995386;28;20514;-51
2021/04/20 07:41:36;;;;;;;49.28;31.55;;;12.40;77.60;;;;;;5013186;28;20046;-49
2021/04/20 07:44:34;;;;;;;46.72;30.90;;;12.50;76.80;;;;;;5015658;28;20042;-51
2021/04/20 07:47:10;;;;;;;51.00;31.42;;;12.60;76.20;;;;;;5015778;28;20058;-50
2021/04/20 07:50:02;;;;;;;44.28;29.75;;;12.80;75.80;;;;;;5014445;28;20415;-53
2021/04/20 07:53:10;;;;;;;45.05;30.75;;;12.90;74.70;;;;;;4997474;28;20050;-49
2021/04/20 07:56:02;;;;;;;48.20;30.70;;;13.00;75.00;;;;;;4989717;28;20658;-52
2021/04/20 07:58:41;;;;;;;45.70;28.80;;;13.10;74.90;;;;;;5019188;28;20077;-52
2021/04/20 08:01:19;;;;;;;47.05;28.23;;;13.20;74.30;;;;;;5012529;28;20076;-55
2021/04/20 08:03:52;;;;;;;41.17;29.85;;;13.30;73.50;;;;;;4993545;28;20400;-56
2021/04/20 08:06:28;;;;;;;47.17;31.63;;;13.40;73.40;;;;;;5002552;28;20135;-55
2021/04/20 08:09:02;;;;;;;43.20;26.33;;;13.50;73.80;;;;;;5011931;28;20046;-56
2021/04/20 08:11:41;;;;;;;34.40;23.35;;;13.60;72.70;;;;;;5003865;28;20030;-50
2021/04/20 08:14:15;;;;;;;35.50;24.98;;;13.70;69.80;;;;;;5010116;28;20089;-50
2021/04/20 08:17:06;;;;;;;36.78;25.73;;;13.70;71.00;;;;;;5004610;28;20056;-55
2021/04/20 08:19:37;;;;;;;42.28;25.48;;;13.70;71.30;;;;;;5008098;28;20042;-56
2021/04/20 08:22:06;;;;;;;37.93;25.67;;;13.80;71.80;;;;;;4994543;28;20077;-51
2021/04/20 08:24:41;;;;;;;36.08;24.40;;;14.00;71.60;;;;;;5008539;28;20499;-49
2021/04/20 08:27:38;;;;;;;39.45;25.73;;;14.20;70.50;;;;;;4993481;28;20057;-52
2021/04/20 08:30:17;;;;;;;38.85;26.10;;;14.20;70.40;;;;;;4977759;28;20486;-52
2021/04/20 08:32:50;;;;;;;37.30;25.52;;;14.40;70.70;;;;;;5009638;28;20397;-50
2021/04/20 08:35:21;;;;;;;39.08;25.73;;;14.30;69.40;;;;;;5003315;28;20046;-50
2021/04/20 08:37:56;;;;;;;40.05;26.23;;;14.50;68.00;;;;;;5003801;28;20082;-53
2021/04/20 08:40:26;;;;;;;40.15;26.17;;;14.50;68.10;;;;;;4996908;28;20050;-50
2021/04/20 08:43:20;;;;;;;41.63;26.80;;;14.50;69.20;;;;;;5009701;28;20049;-54
2021/04/20 08:45:57;;;;;;;37.25;26.23;;;14.70;68.20;;;;;;5000623;28;20128;-51
2021/04/20 08:48:52;;;;;;;38.50;25.45;;;14.80;66.70;;;;;;4999939;28;20039;-53
2021/04/20 08:51:31;;;;;;;39.17;26.65;;;14.80;66.90;;;;;;4993479;28;20042;-54
2021/04/20 08:54:07;;;;;;;37.65;25.33;;;14.90;66.90;;;;;;4992019;28;20073;-54
2021/04/20 08:56:40;;;;;;;37.30;25.15;;;15.00;66.60;;;;;;5011020;28;20081;-54
2021/04/20 08:59:36;;;;;;;37.08;25.98;;;15.00;66.60;;;;;;4997232;28;20397;-55
2021/04/20 09:02:17;;;;;;;36.22;24.38;;;15.10;66.50;;;;;;5001782;28;20376;-56
2021/04/20 09:05:13;;;;;;;35.15;24.17;;;15.10;66.10;;;;;;5006356;28;20517;-53
2021/04/20 09:07:52;;;;;;;36.60;24.23;;;15.20;66.70;;;;;;4993274;28;20042;-52
2021/04/20 09:10:30;;;;;;;34.78;23.92;;;15.40;64.20;;;;;;5012216;28;20064;-56
2021/04/20 09:13:11;;;;;;;37.78;23.77;;;15.50;63.80;;;;;;5024974;28;20151;-53
2021/04/20 09:15:43;;;;;;;32.45;22.08;;;15.50;64.90;;;;;;5003077;28;20046;-52
2021/04/20 09:18:13;;;;;;;36.50;23.80;;;15.50;65.00;;;;;;4995617;28;20518;-53
2021/04/20 09:21:00;;;;;;;33.90;23.17;;;15.40;64.80;;;;;;5001277;28;20413;-51
2021/04/20 09:23:44;;;;;;;35.03;23.33;;;15.40;65.20;;;;;;4993838;28;20089;-55
2021/04/20 09:26:13;;;;;;;33.35;23.02;;;15.40;65.40;;;;;;5005446;28;20042;-53
2021/04/20 09:29:03;;;;;;;33.92;24.02;;;15.40;64.10;;;;;;4998207;28;20041;-53
2021/04/20 09:31:42;;;;;;;36.33;22.90;;;15.40;63.30;;;;;;5010866;28;20514;-51
2021/04/20 09:34:11;;;;;;;34.03;23.23;;;15.60;62.80;;;;;;4975237;28;20053;-54
2021/04/20 09:36:40;;;;;;;39.40;23.88;;;15.60;63.90;;;;;;5006685;28;20481;-53
2021/04/20 09:39:07;;;;;;;32.35;22.08;;;15.70;63.50;;;;;;5012257;28;20112;-56
2021/04/20 09:41:40;;;;;;;27.48;20.63;;;15.80;63.40;;;;;;5010705;28;20406;-55
2021/04/20 09:44:05;;;;;;;35.83;22.95;;;16.00;63.30;;;;;;5012375;28;20042;-56
2021/04/20 09:46:42;;;;;;;33.55;22.13;;;16.00;62.60;;;;;;5011597;28;20133;-51
2021/04/20 09:49:14;;;;;;;33.38;23.08;;;16.00;62.70;;;;;;5011226;28;20061;-54
2021/04/20 09:51:50;;;;;;;30.70;22.10;;;16.00;62.50;;;;;;5011253;28;20061;-53
2021/04/20 09:54:23;;;;;;;30.35;22.13;;;16.00;62.30;;;;;;5006377;28;20117;-55
2021/04/20 09:56:53;;;;;;;32.55;22.63;;;16.00;62.50;;;;;;5003660;28;20061;-55
2021/04/20 09:59:24;;;;;;;32.47;21.92;;;16.10;63.10;;;;;;4993714;28;20042;-55
2021/04/20 10:01:59;;;;;;;30.67;22.65;;;16.20;63.10;;;;;;5011249;28;20048;-54
2021/04/20 10:05:05;;;;;;;29.67;21.55;;;16.30;62.50;;;;;;4992233;28;20074;-54
2021/04/20 10:08:00;;;;;;;30.90;21.60;;;16.50;59.90;;;;;;4909948;28;20081;-55
2021/04/20 10:10:52;;;;;;;34.28;22.95;;;16.60;58.50;;;;;;4985962;28;20104;-53
2021/04/20 10:13:41;;;;;;;29.58;21.15;;;16.60;59.20;;;;;;5003171;28;20511;-53
2021/04/20 10:16:15;;;;;;;32.95;23.92;;;16.60;59.10;;;;;;5005610;28;20598;-53
2021/04/20 10:19:04;;;;;;;32.40;23.70;;;16.60;59.90;;;;;;4997697;28;20061;-55
2021/04/20 10:21:56;;;;;;;35.00;23.63;;;16.70;60.40;;;;;;5010190;28;20052;-54
2021/04/20 10:24:24;;;;;;;35.67;22.70;;;16.90;60.60;;;;;;4992996;28;20046;-56
2021/04/20 10:27:24;;;;;;;30.88;22.63;;;16.90;59.60;;;;;;5011347;28;20111;-54
2021/04/20 10:29:57;;;;;;;29.52;21.83;;;16.90;59.50;;;;;;4982573;28;20050;-55
2021/04/20 10:32:33;;;;;;;28.65;21.85;;;16.80;59.80;;;;;;5012240;28;20037;-56
2021/04/20 10:35:00;;;;;;;32.50;21.27;;;16.70;60.40;;;;;;4988503;28;20038;-56
2021/04/20 10:37:37;;;;;;;27.73;20.15;;;16.70;60.50;;;;;;4991300;28;20046;-56
2021/04/20 10:40:20;;;;;;;31.50;21.83;;;16.70;58.10;;;;;;4994701;28;20041;-55
2021/04/20 10:42:48;;;;;;;29.42;22.10;;;16.80;58.90;;;;;;5010946;28;20125;-55
2021/04/20 10:45:16;;;;;;;31.08;21.55;;;16.70;60.20;;;;;;4995729;28;20053;-54
2021/04/20 10:47:47;;;;;;;29.20;20.73;;;16.60;61.30;;;;;;4991230;28;20034;-50
2021/04/20 10:50:23;;;;;;;29.98;21.13;;;16.60;59.80;;;;;;5003651;28;20042;-53
2021/04/20 10:52:53;;;;;;;26.67;20.58;;;16.60;60.20;;;;;;4998674;28;20037;-51
2021/04/20 10:55:24;;;;;;;29.15;21.30;;;16.40;60.90;;;;;;5009677;28;20049;-55
2021/04/20 10:57:50;;;;;;;28.35;20.92;;;16.40;60.00;;;;;;4998082;28;20038;-55
2021/04/20 11:00:19;;;;;;;28.25;21.65;;;16.30;60.90;;;;;;4998816;28;20118;-54
2021/04/20 11:02:52;;;;;;;30.85;20.55;;;16.50;60.80;;;;;;4997443;28;20406;-55
2021/04/20 11:05:23;;;;;;;24.87;20.43;;;16.60;59.90;;;;;;5014567;28;20414;-55
2021/04/20 11:07:50;;;;;;;28.35;20.42;;;16.70;59.70;;;;;;4996327;28;20077;-55
2021/04/20 11:10:16;;;;;;;25.60;19.42;;;16.80;60.00;;;;;;5007178;28;20034;-54
2021/04/20 11:12:44;;;;;;;26.42;19.20;;;17.00;59.70;;;;;;5001505;28;20046;-52
2021/04/20 11:15:16;;;;;;;28.00;19.92;;;17.20;59.30;;;;;;5000852;28;20046;-56
2021/04/20 11:17:42;;;;;;;25.30;19.77;;;17.50;57.40;;;;;;5001547;28;20038;-54
2021/04/20 11:20:38;;;;;;;27.25;19.38;;;17.70;55.80;;;;;;5003823;28;20053;-54
2021/04/20 11:23:06;;;;;;;26.85;19.10;;;17.80;54.80;;;;;;5000948;28;20034;-54
2021/04/20 11:25:50;;;;;;;26.52;19.00;;;17.80;54.70;;;;;;5007733;28;20049;-54
2021/04/20 11:28:22;;;;;;;28.25;18.83;;;17.90;54.60;;;;;;4994473;28;20719;-56
2021/04/20 11:31:16;;;;;;;25.67;18.38;;;17.80;55.00;;;;;;5001006;28;20376;-55
2021/04/20 11:33:54;;;;;;;27.75;18.83;;;17.60;56.30;;;;;;4994633;28;20038;-55
2021/04/20 11:36:22;;;;;;;28.25;19.13;;;17.50;56.70;;;;;;5008324;28;20061;-55
2021/04/20 11:38:53;;;;;;;25.95;18.77;;;17.30;57.30;;;;;;4999752;28;20050;-56
2021/04/20 11:41:30;;;;;;;28.15;19.33;;;17.20;56.40;;;;;;4994972;28;20513;-56
2021/04/20 11:43:59;;;;;;;25.25;18.33;;;17.10;56.90;;;;;;5008761;28;20038;-55
2021/04/20 11:46:29;;;;;;;27.05;18.90;;;17.00;57.80;;;;;;5012117;28;20037;-55
2021/04/20 11:49:07;;;;;;;29.38;19.08;;;16.90;57.50;;;;;;5008562;28;20650;-53
2021/04/20 11:51:36;;;;;;;25.73;19.42;;;16.80;58.00;;;;;;5010921;28;20045;-55
2021/04/20 11:54:08;;;;;;;29.55;19.65;;;16.70;59.30;;;;;;5002066;28;20049;-54
2021/04/20 11:56:40;;;;;;;29.40;20.33;;;16.70;60.10;;;;;;5002986;28;20513;-55
2021/04/20 11:59:06;;;;;;;29.80;20.17;;;16.70;60.40;;;;;;4995897;28;20038;-55
2021/04/20 12:01:35;;;;;;;26.10;19.20;;;16.60;60.80;;;;;;5004802;28;20045;-56
2021/04/20 12:04:03;;;;;;;25.63;19.48;;;16.60;60.70;;;;;;5006244;28;20422;-56
2021/04/20 12:06:48;;;;;;;27.77;20.73;;;16.70;61.30;;;;;;5005999;28;20073;-54
2021/04/20 12:09:24;;;;;;;26.90;19.10;;;17.00;61.00;;;;;;4993906;28;20402;-55
2021/04/20 12:11:53;;;;;;;26.52;20.77;;;17.20;60.30;;;;;;4994654;28;20042;-52
2021/04/20 12:14:21;;;;;;;27.30;19.98;;;17.30;58.80;;;;;;5005624;28;20042;-53
2021/04/20 12:16:53;;;;;;;28.05;19.85;;;17.40;58.30;;;;;;4997053;28;20561;-54
2021/04/20 12:19:20;;;;;;;;;;;17.40;57.60;;;;;;5003105;28;20046;-53
2021/04/20 12:21:48;;;;;;;28.63;19.77;;;17.50;57.10;;;;;;4992363;28;19969;-52
2021/04/20 12:24:20;;;;;;;25.63;19.88;;;17.60;58.20;;;;;;4994287;28;20077;-54
2021/04/20 12:26:56;;;;;;;27.67;20.40;;;17.60;56.20;;;;;;5008029;28;20044;-54
2021/04/20 12:29:30;;;;;;;26.55;21.05;;;17.80;55.80;;;;;;5004293;28;20061;-54
2021/04/20 12:31:56;;;;;;;26.75;20.38;;;17.80;57.10;;;;;;4995518;28;20088;-54
2021/04/20 12:34:26;;;;;;;28.00;20.40;;;17.70;56.20;;;;;;5011865;28;20034;-51
2021/04/20 12:36:54;;;;;;;27.25;21.13;;;17.70;55.30;;;;;;4997039;28;20142;-54
2021/04/20 12:39:47;;;;;;;27.25;20.30;;;17.70;54.50;;;;;;4998909;28;20053;-54
2021/04/20 12:42:16;;;;;;;26.70;20.30;;;17.50;54.70;;;;;;4988146;28;20511;-56
2021/04/20 12:44:47;;;;;;;25.65;19.17;;;17.40;55.40;;;;;;5010243;28;20038;-51
2021/04/20 12:47:15;;;;;;;25.73;20.10;;;17.30;55.70;;;;;;5008973;28;20045;-54
2021/04/20 12:49:47;;;;;;;25.83;19.52;;;17.30;55.70;;;;;;4995812;28;20053;-53
2021/04/20 12:52:17;;;;;;;31.45;20.25;;;17.10;55.60;;;;;;4997935;28;20527;-53
2021/04/20 12:54:46;;;;;;;23.88;19.42;;;17.30;53.90;;;;;;5002734;28;20065;-50
2021/04/20 12:57:19;;;;;;;27.17;19.83;;;17.10;55.50;;;;;;5012136;28;20050;-54
2021/04/20 12:59:55;;;;;;;25.90;19.60;;;17.10;55.30;;;;;;4985651;28;20045;-55